Time;durP1;ratioP1;P1;durP2;ratioP2;P2;SDS_P1;SDS_P2;PMS_P1;PMS_P2;Temp;Humidity;BMP_temperature;BMP_pressure;BME280_temperature;BME280_humidity;BME280_pressure;Samples;Min_cycle;Max_cycle;Signal;HPM_P1;HPM_P2
2022/10/01 00:00:50;;;;;;;8.90;6.27;;;9.50;99.90;;;;;;5016544;28;20451;-79
2022/10/01 00:03:18;;;;;;;7.63;6.75;;;9.40;99.90;;;;;;5031719;28;20909;-81
2022/10/01 00:05:45;;;;;;;6.70;6.00;;;9.30;99.90;;;;;;5033925;28;20211;-81
2022/10/01 00:08:15;;;;;;;6.70;6.10;;;9.20;99.90;;;;;;5026286;28;20472;-81
2022/10/01 00:10:43;;;;;;;6.77;6.17;;;9.20;99.90;;;;;;5014280;28;20243;-81
2022/10/01 00:13:10;;;;;;;7.17;5.63;;;9.30;99.90;;;;;;5020285;28;20952;-81
2022/10/01 00:15:39;;;;;;;7.20;6.50;;;9.30;99.90;;;;;;5033971;28;20450;-81
2022/10/01 00:18:09;;;;;;;7.47;6.77;;;9.30;99.90;;;;;;5031555;28;20220;-81
2022/10/01 00:20:39;;;;;;;6.45;5.95;;;9.30;99.90;;;;;;5033749;28;20458;-81
2022/10/01 00:23:06;;;;;;;8.93;6.90;;;9.40;99.90;;;;;;5026113;28;20200;-81
2022/10/01 00:25:32;;;;;;;6.88;6.28;;;9.50;99.90;;;;;;5014504;28;20454;-81
2022/10/01 00:27:59;;;;;;;9.10;7.70;;;9.40;99.90;;;;;;5019719;28;20255;-81
2022/10/01 00:30:26;;;;;;;7.93;7.33;;;9.40;99.90;;;;;;5033477;28;20849;-81
2022/10/01 00:32:53;;;;;;;8.20;7.50;;;9.50;99.90;;;;;;5032220;28;20460;-81
2022/10/01 00:35:22;;;;;;;6.53;5.97;;;9.50;99.90;;;;;;5033411;28;20484;-81
2022/10/01 00:37:49;;;;;;;8.00;7.07;;;9.50;99.90;;;;;;5027463;28;20475;-81
2022/10/01 00:40:16;;;;;;;8.43;7.73;;;9.60;99.90;;;;;;5013552;28;20862;-81
2022/10/01 00:42:43;;;;;;;8.27;7.57;;;9.60;99.90;;;;;;5017197;28;20965;-81
2022/10/01 00:45:12;;;;;;;8.43;7.73;;;9.50;99.90;;;;;;5035267;28;20458;-81
2022/10/01 00:47:42;;;;;;;7.77;6.97;;;9.40;99.90;;;;;;5033831;28;21036;-81
2022/10/01 00:50:15;;;;;;;6.70;6.15;;;9.40;99.90;;;;;;5017483;28;20501;-81
2022/10/01 00:52:48;;;;;;;7.67;6.97;;;9.40;99.90;;;;;;5019877;28;20263;-81
2022/10/01 00:55:17;;;;;;;8.10;7.40;;;9.50;99.90;;;;;;5049117;28;20434;-82
2022/10/01 00:57:45;;;;;;;7.47;6.77;;;9.60;99.90;;;;;;5033516;28;20589;-81
2022/10/01 01:00:13;;;;;;;6.87;6.27;;;9.60;99.90;;;;;;5017168;28;20456;-81
2022/10/01 01:02:40;;;;;;;6.67;6.07;;;9.60;99.90;;;;;;5018269;28;20456;-81
2022/10/01 01:05:08;;;;;;;8.23;7.47;;;9.50;99.90;;;;;;5036455;28;20461;-81
2022/10/01 01:07:39;;;;;;;6.77;6.17;;;9.50;99.90;;;;;;5034721;28;20248;-81
2022/10/01 01:10:08;;;;;;;7.90;7.13;;;9.60;99.90;;;;;;5036164;28;20519;-81
2022/10/01 01:12:47;;;;;;;7.83;6.27;;;9.50;99.90;;;;;;5034416;28;20837;-82
2022/10/01 01:15:17;;;;;;;8.20;6.80;;;9.60;99.90;;;;;;5022100;28;20800;-82
2022/10/01 01:17:53;;;;;;;6.43;5.90;;;9.50;99.90;;;;;;5046319;28;20480;-82
2022/10/01 01:20:42;;;;;;;6.15;5.63;;;9.40;99.90;;;;;;5049143;28;20457;-82
2022/10/01 01:23:32;;;;;;;6.90;6.40;;;9.40;99.90;;;;;;5029665;28;20219;-81
2022/10/01 01:26:11;;;;;;;5.93;5.43;;;9.30;99.90;;;;;;5028034;28;20279;-82
2022/10/01 01:28:43;;;;;;;6.07;5.47;;;9.40;99.90;;;;;;5041159;28;20224;-82
2022/10/01 01:31:14;;;;;;;5.20;4.80;;;9.40;99.90;;;;;;5033885;28;20636;-82
2022/10/01 01:33:45;;;;;;;6.38;5.88;;;9.40;99.90;;;;;;5020791;28;20456;-82
2022/10/01 01:36:16;;;;;;;7.25;6.55;;;9.30;99.90;;;;;;5027487;28;20206;-82
2022/10/01 01:38:46;;;;;;;5.23;4.83;;;9.40;99.90;;;;;;5040419;28;20267;-82
2022/10/01 01:41:15;;;;;;;5.47;4.97;;;9.40;99.90;;;;;;5034484;28;20479;-80
2022/10/01 01:43:46;;;;;;;6.33;5.83;;;9.50;99.90;;;;;;5021094;28;20455;-82
2022/10/01 01:46:16;;;;;;;5.47;4.97;;;9.50;99.90;;;;;;5022341;28;20459;-82
2022/10/01 01:48:46;;;;;;;5.60;5.20;;;9.60;99.90;;;;;;5030938;28;20220;-81
2022/10/01 01:51:20;;;;;;;6.88;6.35;;;9.50;99.90;;;;;;5027263;28;20220;-82
2022/10/01 01:53:47;;;;;;;5.57;5.05;;;9.60;99.90;;;;;;5042415;28;20206;-82
2022/10/01 01:56:16;;;;;;;6.57;5.97;;;9.60;99.90;;;;;;5039992;28;20200;-82
2022/10/01 01:58:45;;;;;;;4.32;4.03;;;9.60;99.90;;;;;;5042034;28;20505;-81
2022/10/01 02:01:34;;;;;;;4.57;4.33;;;9.60;99.90;;;;;;5025243;28;20233;-82
2022/10/01 02:04:02;;;;;;;5.77;5.37;;;9.70;99.90;;;;;;5020150;28;20506;-82
2022/10/01 02:06:36;;;;;;;7.10;6.43;;;9.70;99.90;;;;;;5036527;28;20535;-81
2022/10/01 02:09:10;;;;;;;5.87;5.30;;;9.70;99.90;;;;;;5033746;28;20464;-81
2022/10/01 02:11:45;;;;;;;5.60;5.20;;;9.70;99.90;;;;;;5020403;28;21022;-82
2022/10/01 02:14:26;;;;;;;6.23;5.40;;;9.70;99.90;;;;;;5027430;28;20452;-82
2022/10/01 02:17:00;;;;;;;4.80;4.50;;;9.70;99.90;;;;;;5027354;28;20456;-82
2022/10/01 02:19:32;;;;;;;5.83;5.33;;;9.70;99.90;;;;;;5028775;28;20471;-82
2022/10/01 02:22:01;;;;;;;4.80;4.40;;;9.70;99.90;;;;;;5040244;28;20452;-81
2022/10/01 02:24:37;;;;;;;4.60;4.20;;;9.70;99.90;;;;;;5030475;28;20985;-81
2022/10/01 02:27:08;;;;;;;4.60;4.20;;;9.60;99.90;;;;;;5019683;28;20503;-81
2022/10/01 02:29:39;;;;;;;4.77;4.37;;;9.60;99.90;;;;;;5028652;28;20457;-82
2022/10/01 02:32:08;;;;;;;5.40;4.90;;;9.60;99.90;;;;;;5035145;28;20462;-82
2022/10/01 02:34:35;;;;;;;4.70;4.30;;;9.60;99.90;;;;;;5019724;28;20451;-82
2022/10/01 02:37:05;;;;;;;4.20;3.80;;;9.60;99.90;;;;;;5023385;28;20479;-81
2022/10/01 02:39:33;;;;;;;4.90;4.60;;;9.60;99.90;;;;;;5039074;28;20463;-82
2022/10/01 02:42:02;;;;;;;6.20;4.90;;;9.60;99.90;;;;;;5036545;28;20460;-82
2022/10/01 02:44:36;;;;;;;5.30;4.87;;;9.60;99.90;;;;;;5019800;28;20457;-81
2022/10/01 02:47:09;;;;;;;3.80;3.50;;;9.70;99.90;;;;;;5038331;28;20485;-82
2022/10/01 02:49:40;;;;;;;3.73;3.47;;;9.80;99.90;;;;;;5036893;28;20908;-82
2022/10/01 02:52:12;;;;;;;4.80;4.50;;;9.80;99.90;;;;;;5039392;28;20541;-81
2022/10/01 02:54:46;;;;;;;4.30;3.93;;;9.80;99.90;;;;;;5020284;28;20797;-82
2022/10/01 02:57:23;;;;;;;3.97;3.67;;;9.80;99.90;;;;;;5019734;28;20475;-82
2022/10/01 02:59:50;;;;;;;4.17;3.73;;;9.90;99.90;;;;;;5038477;28;20463;-82
2022/10/01 03:02:21;;;;;;;4.70;4.30;;;10.00;99.90;;;;;;5039719;28;20453;-82
2022/10/01 03:04:48;;;;;;;5.00;4.20;;;10.00;99.90;;;;;;5038483;28;20455;-82
2022/10/01 03:07:15;;;;;;;5.57;5.07;;;9.90;99.90;;;;;;5038707;28;20464;-83
2022/10/01 03:09:41;;;;;;;4.83;4.43;;;10.00;99.90;;;;;;5019529;28;20457;-81
2022/10/01 03:12:09;;;;;;;4.10;3.80;;;10.00;99.90;;;;;;5028848;28;20550;-82
2022/10/01 03:14:38;;;;;;;4.23;3.90;;;10.00;99.90;;;;;;5038287;28;20485;-82
2022/10/01 03:17:05;;;;;;;4.20;3.83;;;9.90;99.90;;;;;;5032551;28;20838;-82
2022/10/01 03:19:33;;;;;;;4.20;3.87;;;9.90;99.90;;;;;;5032441;28;20460;-82
2022/10/01 03:22:00;;;;;;;4.10;3.80;;;9.90;99.90;;;;;;5038703;28;20456;-81
2022/10/01 03:24:28;;;;;;;5.83;4.50;;;9.90;99.90;;;;;;5039258;28;20451;-83
2022/10/01 03:26:55;;;;;;;4.70;4.23;;;10.00;99.90;;;;;;5037762;28;20453;-82
2022/10/01 03:29:22;;;;;;;4.63;4.23;;;10.00;99.90;;;;;;5039287;28;20451;-82
2022/10/01 03:31:49;;;;;;;4.20;3.90;;;10.00;99.90;;;;;;5033407;28;20487;-82
2022/10/01 03:34:15;;;;;;;4.90;4.50;;;10.00;99.90;;;;;;5018381;28;21061;-83
2022/10/01 03:36:44;;;;;;;6.40;4.43;;;10.00;99.90;;;;;;5034634;28;20467;-81
2022/10/01 03:39:10;;;;;;;4.63;4.33;;;9.90;99.90;;;;;;5038666;28;20514;-82
2022/10/01 03:41:38;;;;;;;5.40;4.00;;;9.90;99.90;;;;;;5020413;28;20451;-82
2022/10/01 03:44:05;;;;;;;5.40;4.10;;;9.80;99.90;;;;;;5019044;28;20466;-82
2022/10/01 03:46:32;;;;;;;3.77;3.47;;;9.80;99.90;;;;;;5034847;28;20824;-82
2022/10/01 03:48:59;;;;;;;4.13;3.83;;;9.80;99.90;;;;;;5038035;28;20471;-82
2022/10/01 03:51:27;;;;;;;3.60;3.20;;;9.80;99.90;;;;;;5022580;28;20544;-82
2022/10/01 03:53:55;;;;;;;2.70;2.60;;;9.80;99.90;;;;;;5018508;28;20819;-82
2022/10/01 03:56:22;;;;;;;3.17;2.97;;;9.70;99.90;;;;;;5032416;28;20458;-82
2022/10/01 03:58:49;;;;;;;4.57;4.17;;;9.80;99.90;;;;;;5030936;28;20469;-80
2022/10/01 04:01:16;;;;;;;4.53;3.10;;;9.70;99.90;;;;;;5018941;28;20452;-82
2022/10/01 04:03:43;;;;;;;4.00;3.70;;;9.80;99.90;;;;;;5018480;28;20885;-81
2022/10/01 04:06:10;;;;;;;3.10;2.83;;;9.80;99.90;;;;;;5018525;28;20446;-82
2022/10/01 04:08:37;;;;;;;4.20;3.80;;;9.70;99.90;;;;;;5021754;28;20471;-82
2022/10/01 04:11:05;;;;;;;3.00;2.80;;;9.70;99.90;;;;;;5038277;28;20551;-82
2022/10/01 04:13:33;;;;;;;3.00;2.80;;;9.70;99.90;;;;;;5035619;28;20205;-82
2022/10/01 04:16:00;;;;;;;3.55;3.35;;;9.70;99.90;;;;;;5038516;28;20454;-82
2022/10/01 04:18:27;;;;;;;3.28;3.05;;;9.60;99.90;;;;;;5028461;28;20224;-82
2022/10/01 04:20:54;;;;;;;3.90;3.60;;;9.70;99.90;;;;;;5021278;28;20233;-82
2022/10/01 04:23:21;;;;;;;4.10;2.63;;;9.80;99.90;;;;;;5029921;28;20527;-82
2022/10/01 04:25:48;;;;;;;3.27;2.97;;;9.80;99.90;;;;;;5041604;28;20522;-82
2022/10/01 04:28:16;;;;;;;3.07;2.87;;;9.90;99.90;;;;;;5022693;28;20473;-82
2022/10/01 04:30:45;;;;;;;3.13;2.80;;;9.80;99.90;;;;;;5023356;28;20500;-79
2022/10/01 04:33:14;;;;;;;3.60;3.30;;;9.90;99.90;;;;;;5052506;28;20455;-81
2022/10/01 04:35:42;;;;;;;3.40;3.20;;;9.80;99.90;;;;;;5054929;28;20439;-79
2022/10/01 04:38:14;;;;;;;2.97;2.77;;;9.90;99.90;;;;;;5032218;28;20476;-82
2022/10/01 04:40:41;;;;;;;2.87;2.67;;;9.90;99.90;;;;;;5024450;28;21078;-82
2022/10/01 04:43:09;;;;;;;2.90;2.70;;;9.80;99.90;;;;;;5038799;28;20450;-82
2022/10/01 04:45:37;;;;;;;2.97;2.70;;;9.80;99.90;;;;;;5042771;28;20481;-81
2022/10/01 04:48:04;;;;;;;2.87;2.63;;;9.90;99.90;;;;;;5028236;28;20472;-82
2022/10/01 04:50:32;;;;;;;2.27;2.17;;;9.80;99.90;;;;;;5022734;28;20506;-82
2022/10/01 04:52:58;;;;;;;1.77;1.67;;;9.70;99.90;;;;;;5040537;28;20456;-82
2022/10/01 04:55:27;;;;;;;3.03;2.77;;;9.70;99.90;;;;;;5036339;28;20453;-82
2022/10/01 04:57:53;;;;;;;2.20;2.10;;;9.80;99.90;;;;;;5021826;28;20492;-83
2022/10/01 05:00:23;;;;;;;2.33;2.23;;;9.80;99.90;;;;;;5027407;28;20455;-81
2022/10/01 05:02:52;;;;;;;2.00;1.90;;;9.80;99.90;;;;;;5041913;28;20486;-82
2022/10/01 05:05:21;;;;;;;2.00;1.90;;;9.80;99.90;;;;;;5038157;28;20472;-82
2022/10/01 05:07:48;;;;;;;2.00;1.90;;;9.90;99.90;;;;;;5022144;28;20472;-82
2022/10/01 05:10:17;;;;;;;1.63;1.53;;;9.90;99.90;;;;;;5024385;28;20449;-82
2022/10/01 05:12:44;;;;;;;2.37;2.17;;;10.00;99.90;;;;;;5041888;28;20534;-82
2022/10/01 05:15:12;;;;;;;2.30;1.97;;;10.10;99.90;;;;;;5041006;28;20451;-82
2022/10/01 05:17:38;;;;;;;2.60;2.40;;;10.10;99.90;;;;;;5021233;28;20480;-81
2022/10/01 05:20:10;;;;;;;1.70;1.60;;;10.20;99.90;;;;;;5025696;28;20817;-82
2022/10/01 05:22:36;;;;;;;2.63;1.80;;;10.20;99.90;;;;;;5041604;28;20504;-82
2022/10/01 05:25:05;;;;;;;2.80;1.93;;;10.30;99.90;;;;;;5028579;28;20464;-82
2022/10/01 05:27:35;;;;;;;1.90;1.80;;;10.30;99.90;;;;;;5021692;28;20481;-81
2022/10/01 05:30:02;;;;;;;2.00;1.90;;;10.40;99.90;;;;;;5033641;28;20460;-82
2022/10/01 05:32:29;;;;;;;2.13;1.97;;;10.40;99.90;;;;;;5040852;28;20484;-82
2022/10/01 05:34:55;;;;;;;2.00;1.90;;;10.40;99.90;;;;;;5030143;28;20466;-82
2022/10/01 05:37:23;;;;;;;3.03;2.83;;;10.40;99.90;;;;;;5022274;28;20475;-82
2022/10/01 05:39:50;;;;;;;1.77;1.67;;;10.50;99.90;;;;;;5031172;28;20453;-82
2022/10/01 05:42:17;;;;;;;2.37;1.93;;;10.50;99.90;;;;;;5040854;28;20448;-82
2022/10/01 05:44:45;;;;;;;1.80;1.70;;;10.50;99.90;;;;;;5032596;28;20453;-82
2022/10/01 05:47:12;;;;;;;1.53;1.43;;;10.40;99.90;;;;;;5020651;28;20518;-81
2022/10/01 05:49:41;;;;;;;1.90;1.80;;;10.40;99.90;;;;;;5038764;28;20452;-82
2022/10/01 05:52:08;;;;;;;1.90;1.80;;;10.40;99.90;;;;;;5041164;28;20495;-82
2022/10/01 05:54:40;;;;;;;1.60;1.50;;;10.40;99.90;;;;;;5024335;28;20454;-82
2022/10/01 05:57:07;;;;;;;2.07;1.97;;;10.40;99.90;;;;;;5021600;28;20487;-82
2022/10/01 05:59:34;;;;;;;2.70;2.07;;;10.50;99.90;;;;;;5036650;28;20510;-82
2022/10/01 06:02:01;;;;;;;2.03;1.83;;;10.40;99.90;;;;;;5040829;28;20448;-83
2022/10/01 06:04:28;;;;;;;2.60;2.40;;;10.50;99.90;;;;;;5024884;28;20555;-81
2022/10/01 06:06:55;;;;;;;2.17;2.00;;;10.60;99.90;;;;;;5020639;28;20449;-82
2022/10/01 06:09:21;;;;;;;2.90;2.50;;;10.50;99.90;;;;;;5033500;28;20434;-82
2022/10/01 06:11:50;;;;;;;2.20;2.03;;;10.50;99.90;;;;;;5026582;28;20472;-81
2022/10/01 06:14:17;;;;;;;1.50;1.40;;;10.60;99.90;;;;;;5032843;28;20459;-82
2022/10/01 06:16:47;;;;;;;1.40;1.30;;;10.50;99.90;;;;;;5041451;28;20449;-83
2022/10/01 06:19:16;;;;;;;2.20;2.10;;;10.50;99.90;;;;;;5028492;28;20456;-82
2022/10/01 06:21:42;;;;;;;2.00;1.90;;;10.50;99.90;;;;;;5021819;28;20463;-82
2022/10/01 06:24:09;;;;;;;3.03;2.07;;;10.50;99.90;;;;;;5032068;28;20984;-82
2022/10/01 06:26:39;;;;;;;2.70;1.73;;;10.50;99.90;;;;;;5039517;28;20479;-83
2022/10/01 06:29:07;;;;;;;1.50;1.40;;;10.50;99.90;;;;;;5036649;28;20477;-82
2022/10/01 06:31:34;;;;;;;2.00;1.90;;;10.50;99.90;;;;;;5021051;28;21017;-82
2022/10/01 06:34:00;;;;;;;2.70;2.40;;;10.40;99.90;;;;;;5024000;28;20464;-83
2022/10/01 06:36:27;;;;;;;2.00;1.90;;;10.50;99.90;;;;;;5040449;28;20464;-82
2022/10/01 06:38:54;;;;;;;2.27;2.07;;;10.50;99.90;;;;;;5038744;28;20838;-83
2022/10/01 06:41:21;;;;;;;2.00;1.90;;;10.40;99.90;;;;;;5020943;28;20447;-81
2022/10/01 06:43:48;;;;;;;2.10;2.00;;;10.50;99.90;;;;;;5020616;28;20471;-82
2022/10/01 06:46:17;;;;;;;2.70;2.50;;;10.50;99.90;;;;;;5020715;28;20476;-81
2022/10/01 06:48:43;;;;;;;2.20;2.10;;;10.40;99.90;;;;;;5019690;28;20849;-82
2022/10/01 06:51:10;;;;;;;2.27;2.00;;;10.30;99.90;;;;;;5019737;28;20495;-82
2022/10/01 06:53:37;;;;;;;1.73;1.63;;;10.40;99.90;;;;;;5019538;28;20457;-83
2022/10/01 06:56:05;;;;;;;1.83;1.73;;;10.30;99.90;;;;;;5019390;28;20453;-82
2022/10/01 06:58:32;;;;;;;2.20;2.10;;;10.30;99.90;;;;;;5019324;28;20515;-82
2022/10/01 07:01:00;;;;;;;2.20;1.90;;;10.40;99.90;;;;;;5019734;28;20461;-83
2022/10/01 07:03:29;;;;;;;1.80;1.70;;;10.40;99.90;;;;;;5020763;28;20901;-84
2022/10/01 07:06:01;;;;;;;2.50;1.93;;;10.50;99.90;;;;;;5020924;28;20450;-83
2022/10/01 07:08:28;;;;;;;1.60;1.50;;;10.40;99.90;;;;;;5019145;28;20484;-82
2022/10/01 07:11:02;;;;;;;2.37;2.27;;;10.50;99.90;;;;;;5016817;28;20465;-83
2022/10/01 07:13:29;;;;;;;3.90;1.70;;;10.50;99.90;;;;;;5018698;28;20953;-82
2022/10/01 07:15:55;;;;;;;2.50;2.30;;;10.50;99.90;;;;;;5018167;28;20449;-83
2022/10/01 07:18:22;;;;;;;1.60;1.50;;;10.60;99.90;;;;;;5017968;28;20472;-83
2022/10/01 07:20:50;;;;;;;2.40;2.30;;;10.60;99.90;;;;;;5018880;28;20487;-83
2022/10/01 07:23:17;;;;;;;1.97;1.87;;;10.60;99.90;;;;;;5019432;28;20962;-84
2022/10/01 07:25:45;;;;;;;3.60;2.13;;;10.70;99.90;;;;;;5018775;28;20452;-83
2022/10/01 07:28:16;;;;;;;1.80;1.70;;;10.60;99.90;;;;;;5016519;28;20483;-82
2022/10/01 07:30:46;;;;;;;2.33;2.23;;;10.50;99.90;;;;;;5015324;28;20547;-81
2022/10/01 07:33:13;;;;;;;1.80;1.70;;;10.50;99.90;;;;;;5025223;28;20492;-82
2022/10/01 07:35:40;;;;;;;3.50;1.83;;;10.50;99.90;;;;;;5025985;28;20449;-82
2022/10/01 07:38:08;;;;;;;1.80;1.70;;;10.50;99.90;;;;;;5024805;28;20471;-80
2022/10/01 07:40:35;;;;;;;1.80;1.70;;;10.60;99.90;;;;;;5026768;28;20455;-81
2022/10/01 07:43:02;;;;;;;2.20;2.07;;;10.60;99.90;;;;;;5025798;28;20442;-80
2022/10/01 07:45:30;;;;;;;2.20;2.10;;;10.70;99.90;;;;;;5031069;28;20467;-80
2022/10/01 07:47:58;;;;;;;2.30;2.20;;;10.60;99.90;;;;;;5031581;28;20988;-79
2022/10/01 07:50:26;;;;;;;3.00;2.37;;;10.60;99.90;;;;;;5031382;28;20460;-79
2022/10/01 07:52:54;;;;;;;1.60;1.57;;;10.70;99.90;;;;;;5026818;28;20859;-81
2022/10/01 07:55:26;;;;;;;3.00;2.80;;;10.60;99.90;;;;;;5026808;28;20800;-81
2022/10/01 07:57:54;;;;;;;1.50;1.40;;;10.60;99.90;;;;;;5029437;28;21025;-81
2022/10/01 08:00:22;;;;;;;1.53;1.43;;;10.60;99.90;;;;;;5027155;28;20458;-81
2022/10/01 08:02:50;;;;;;;2.37;1.80;;;10.50;99.90;;;;;;5016832;28;20449;-81
2022/10/01 08:05:17;;;;;;;2.13;1.93;;;10.70;99.90;;;;;;5017620;28;20447;-81
2022/10/01 08:07:45;;;;;;;2.03;1.90;;;10.60;99.90;;;;;;5017944;28;20479;-82
2022/10/01 08:10:12;;;;;;;2.10;2.00;;;10.60;99.90;;;;;;5019277;28;20499;-81
2022/10/01 08:12:41;;;;;;;1.90;1.77;;;10.60;99.90;;;;;;5019604;28;20484;-82
2022/10/01 08:15:09;;;;;;;1.90;1.80;;;10.50;99.90;;;;;;5020633;28;20492;-80
2022/10/01 08:17:37;;;;;;;2.20;2.00;;;10.60;99.90;;;;;;5018841;28;21044;-80
2022/10/01 08:20:05;;;;;;;2.77;1.97;;;10.50;99.90;;;;;;5019161;28;20526;-82
2022/10/01 08:22:32;;;;;;;2.70;2.40;;;10.50;99.90;;;;;;5019604;28;20447;-79
2022/10/01 08:24:59;;;;;;;1.90;1.80;;;10.50;99.90;;;;;;5021898;28;20973;-81
2022/10/01 08:27:26;;;;;;;1.87;1.73;;;10.50;99.90;;;;;;5037413;28;20477;-81
2022/10/01 08:29:54;;;;;;;1.90;1.80;;;10.40;99.90;;;;;;5032651;28;20452;-80
2022/10/01 08:32:23;;;;;;;1.97;1.80;;;10.30;99.90;;;;;;5018434;28;21063;-80
2022/10/01 08:34:51;;;;;;;2.00;1.87;;;10.30;99.90;;;;;;5025716;28;20495;-79
2022/10/01 08:37:18;;;;;;;2.20;2.10;;;10.40;99.90;;;;;;5017989;28;20585;-79
2022/10/01 08:39:45;;;;;;;4.10;1.90;;;10.30;99.90;;;;;;5016373;28;20448;-79
2022/10/01 08:42:27;;;;;;;2.57;2.37;;;10.20;99.90;;;;;;5015970;28;20449;-79
2022/10/01 08:44:56;;;;;;;2.33;1.97;;;10.30;99.90;;;;;;5017600;28;21004;-78
2022/10/01 08:47:29;;;;;;;2.50;2.10;;;10.20;99.90;;;;;;5016053;28;20568;-78
2022/10/01 08:50:00;;;;;;;2.00;1.90;;;10.20;99.90;;;;;;5016661;28;20453;-78
2022/10/01 08:52:31;;;;;;;2.30;2.20;;;10.20;99.90;;;;;;5016273;28;20845;-78
2022/10/01 08:55:03;;;;;;;2.30;2.10;;;10.30;99.90;;;;;;5016606;28;20468;-78
2022/10/01 08:57:35;;;;;;;1.63;1.53;;;10.30;99.90;;;;;;5016454;28;20511;-78
2022/10/01 09:00:10;;;;;;;2.33;2.10;;;10.30;99.90;;;;;;5016076;28;20456;-78
2022/10/01 09:02:40;;;;;;;1.93;1.77;;;10.40;99.90;;;;;;5015870;28;20498;-78
2022/10/01 09:05:18;;;;;;;1.63;1.50;;;10.40;99.90;;;;;;5015164;28;20952;-78
2022/10/01 09:08:14;;;;;;;2.00;1.80;;;10.40;99.90;;;;;;5015426;28;20472;-76
2022/10/01 09:10:45;;;;;;;2.30;2.10;;;10.60;99.90;;;;;;5015651;28;20463;-78
2022/10/01 09:13:31;;;;;;;2.60;2.40;;;10.60;99.90;;;;;;5015521;28;20492;-78
2022/10/01 09:16:07;;;;;;;1.77;1.67;;;10.60;99.90;;;;;;5015475;28;20464;-78
2022/10/01 09:18:46;;;;;;;3.47;2.00;;;10.70;99.90;;;;;;5014844;28;20484;-78
2022/10/01 09:21:19;;;;;;;1.67;1.60;;;10.70;99.90;;;;;;5014644;28;20470;-78
2022/10/01 09:23:58;;;;;;;5.40;2.10;;;10.90;99.90;;;;;;5014590;28;20464;-77
2022/10/01 09:26:24;;;;;;;2.13;2.00;;;11.00;99.90;;;;;;5014743;28;20452;-78
2022/10/01 09:28:54;;;;;;;2.27;2.17;;;11.10;99.90;;;;;;5014294;28;20477;-77
2022/10/01 09:31:28;;;;;;;2.17;1.97;;;11.10;99.90;;;;;;5014530;28;20531;-78
2022/10/01 09:34:02;;;;;;;2.37;2.17;;;11.20;99.90;;;;;;5014484;28;20816;-78
2022/10/01 09:36:36;;;;;;;1.90;1.80;;;11.20;99.90;;;;;;5014330;28;20936;-78
2022/10/01 09:39:14;;;;;;;2.10;1.90;;;11.10;99.90;;;;;;5014038;28;20465;-77
2022/10/01 09:41:44;;;;;;;1.80;1.70;;;11.20;99.90;;;;;;5014365;28;20449;-78
2022/10/01 09:44:16;;;;;;;2.00;1.90;;;11.20;99.90;;;;;;5014210;28;20457;-78
2022/10/01 09:46:46;;;;;;;2.33;1.50;;;11.20;99.90;;;;;;5014155;28;20451;-78
2022/10/01 09:49:20;;;;;;;1.97;1.87;;;11.20;99.90;;;;;;5013715;28;20461;-78
2022/10/01 09:51:53;;;;;;;2.03;1.93;;;11.30;99.90;;;;;;5014021;28;20445;-78
2022/10/01 09:54:27;;;;;;;2.03;1.87;;;11.40;99.90;;;;;;5014159;28;20454;-78
2022/10/01 09:56:58;;;;;;;2.30;1.87;;;11.40;99.90;;;;;;5013953;28;20952;-78
2022/10/01 09:59:33;;;;;;;4.47;1.60;;;11.50;99.90;;;;;;5013845;28;20446;-78
2022/10/01 10:02:03;;;;;;;2.10;2.00;;;11.50;99.90;;;;;;5014058;28;20813;-78
2022/10/01 10:04:30;;;;;;;2.37;2.17;;;11.50;99.90;;;;;;5013842;28;20525;-78
2022/10/01 10:07:01;;;;;;;1.60;1.50;;;11.50;99.90;;;;;;5013702;28;20499;-78
2022/10/01 10:09:30;;;;;;;1.37;1.27;;;11.50;99.90;;;;;;5013402;28;20459;-77
2022/10/01 10:11:58;;;;;;;2.13;2.03;;;11.40;99.90;;;;;;5013665;28;20457;-77
2022/10/01 10:14:30;;;;;;;3.43;1.80;;;11.50;99.90;;;;;;5013968;28;20522;-78
2022/10/01 10:16:58;;;;;;;1.90;1.70;;;11.70;99.90;;;;;;5014046;28;20453;-78
2022/10/01 10:19:28;;;;;;;1.63;1.50;;;11.60;99.90;;;;;;5013794;28;20544;-78
2022/10/01 10:21:59;;;;;;;1.87;1.77;;;11.60;99.90;;;;;;5014281;28;20452;-79
2022/10/01 10:24:31;;;;;;;1.07;1.07;;;11.70;99.90;;;;;;5013864;28;20449;-78
2022/10/01 10:27:00;;;;;;;1.90;1.67;;;11.70;99.90;;;;;;5013857;28;20940;-78
2022/10/01 10:29:30;;;;;;;1.40;1.30;;;11.70;99.90;;;;;;5014291;28;20450;-78
2022/10/01 10:31:58;;;;;;;4.73;1.73;;;11.80;99.90;;;;;;5015137;28;20438;-78
2022/10/01 10:34:32;;;;;;;1.80;1.03;;;11.70;99.90;;;;;;5030833;28;20468;-78
2022/10/01 10:37:00;;;;;;;1.53;1.43;;;11.80;99.90;;;;;;5014913;28;20450;-79
2022/10/01 10:39:29;;;;;;;1.80;1.20;;;11.80;99.90;;;;;;5016812;28;20977;-79
2022/10/01 10:41:58;;;;;;;1.70;1.60;;;11.90;99.90;;;;;;5034999;28;20826;-79
2022/10/01 10:44:29;;;;;;;1.33;1.23;;;11.80;99.90;;;;;;5023442;28;20467;-78
2022/10/01 10:47:00;;;;;;;1.73;1.63;;;11.90;99.90;;;;;;5014797;28;20458;-79
2022/10/01 10:49:31;;;;;;;1.27;1.27;;;11.70;99.90;;;;;;5026844;28;20452;-79
2022/10/01 10:52:00;;;;;;;1.17;1.07;;;11.80;99.90;;;;;;5034629;28;20432;-79
2022/10/01 10:54:31;;;;;;;1.10;1.00;;;11.70;99.90;;;;;;5032322;28;20449;-79
2022/10/01 10:57:01;;;;;;;0.77;0.77;;;11.80;99.90;;;;;;5034478;28;20507;-79
2022/10/01 10:59:30;;;;;;;0.87;0.87;;;11.90;99.90;;;;;;5020863;28;20454;-80
2022/10/01 11:01:57;;;;;;;1.00;1.00;;;12.00;99.90;;;;;;5014802;28;20456;-78
2022/10/01 11:04:32;;;;;;;1.27;1.03;;;12.30;99.90;;;;;;5028702;28;20464;-78
2022/10/01 11:07:01;;;;;;;0.80;0.70;;;12.50;99.90;;;;;;5045199;28;20447;-78
2022/10/01 11:09:33;;;;;;;0.90;0.90;;;12.60;99.90;;;;;;5030868;28;20847;-78
2022/10/01 11:12:12;;;;;;;0.80;0.80;;;12.80;99.90;;;;;;5018224;28;20534;-79
2022/10/01 11:15:08;;;;;;;1.00;1.00;;;12.90;99.90;;;;;;5027232;28;20453;-79
2022/10/01 11:18:09;;;;;;;0.63;0.63;;;13.20;99.90;;;;;;5033743;28;20476;-80
2022/10/01 11:20:49;;;;;;;0.70;0.70;;;13.10;99.90;;;;;;5014474;28;20461;-80
2022/10/01 11:23:40;;;;;;;1.07;1.00;;;13.10;99.90;;;;;;5034248;28;20449;-80
2022/10/01 11:26:16;;;;;;;0.93;0.93;;;13.10;99.90;;;;;;5015001;28;20990;-80
2022/10/01 11:28:53;;;;;;;1.30;1.20;;;13.00;99.90;;;;;;5018141;28;20882;-79
2022/10/01 11:31:31;;;;;;;0.70;0.70;;;12.90;99.90;;;;;;5034338;28;20459;-80
2022/10/01 11:34:14;;;;;;;0.80;0.80;;;12.80;99.90;;;;;;5027997;28;20485;-80
2022/10/01 11:36:51;;;;;;;1.27;0.70;;;12.80;99.90;;;;;;5014456;28;20456;-79
2022/10/01 11:39:20;;;;;;;0.80;0.80;;;12.70;99.90;;;;;;5022272;28;20539;-79
2022/10/01 11:41:51;;;;;;;0.63;0.63;;;12.70;99.90;;;;;;5032631;28;20468;-83
2022/10/01 11:44:26;;;;;;;0.70;0.70;;;12.70;99.90;;;;;;5015081;28;20450;-80
2022/10/01 11:46:59;;;;;;;0.73;0.73;;;12.70;99.90;;;;;;5018665;28;20463;-83
2022/10/01 11:49:46;;;;;;;0.70;0.60;;;12.70;99.90;;;;;;5034370;28;20477;-80
2022/10/01 12:12:30;;;;;;;1.37;0.70;;;12.20;99.90;;;;;;4992033;28;20435;-86
2022/10/01 12:32:59;;;;;;;2.77;0.90;;;12.90;99.90;;;;;;4746899;29;21005;-84
2022/10/01 12:35:48;;;;;;;1.10;1.00;;;13.20;99.90;;;;;;4834005;29;20459;-84
2022/10/01 12:38:33;;;;;;;0.60;0.60;;;13.30;99.90;;;;;;5012582;28;20470;-84
2022/10/01 12:41:10;;;;;;;0.60;0.60;;;13.20;99.90;;;;;;5017185;28;20900;-84
2022/10/01 12:44:04;;;;;;;1.13;0.90;;;13.20;99.90;;;;;;5038759;28;20433;-84
2022/10/01 12:46:40;;;;;;;0.60;0.60;;;13.30;99.90;;;;;;5019137;28;20451;-86
2022/10/01 12:49:21;;;;;;;1.03;0.60;;;13.50;99.90;;;;;;5020987;28;20472;-85
2022/10/01 12:51:51;;;;;;;0.50;0.50;;;13.50;99.90;;;;;;5037561;28;20445;-85
2022/10/01 12:54:48;;;;;;;0.77;0.77;;;13.40;99.90;;;;;;5026185;28;20852;-84
2022/10/01 12:57:27;;;;;;;0.50;0.50;;;13.20;99.90;;;;;;5018519;28;20485;-84
2022/10/01 13:00:04;;;;;;;1.10;1.00;;;13.30;99.90;;;;;;5019528;28;20450;-85
2022/10/01 13:02:56;;;;;;;0.83;0.60;;;13.20;99.90;;;;;;5026054;28;20461;-84
2022/10/01 13:05:31;;;;;;;0.70;0.60;;;13.20;99.90;;;;;;5022409;28;20824;-86
2022/10/01 13:08:23;;;;;;;1.83;1.00;;;13.40;99.90;;;;;;5024457;28;20478;-86
2022/10/01 13:10:58;;;;;;;1.40;0.93;;;13.40;99.90;;;;;;5023955;28;21041;-86
2022/10/01 13:13:31;;;;;;;1.20;1.20;;;13.60;99.90;;;;;;5019795;28;20478;-86
2022/10/01 13:16:03;;;;;;;1.27;1.17;;;13.70;99.90;;;;;;5016658;28;20454;-85
2022/10/01 13:18:39;;;;;;;0.87;0.87;;;13.90;99.90;;;;;;5015787;28;20477;-84
2022/10/01 13:21:14;;;;;;;0.83;0.83;;;13.90;99.90;;;;;;5020860;28;20459;-84
2022/10/01 13:23:49;;;;;;;1.60;1.10;;;14.10;99.90;;;;;;5017358;28;20454;-86
2022/10/01 13:26:22;;;;;;;0.77;0.60;;;14.30;99.90;;;;;;5026120;28;20454;-85
2022/10/01 13:29:02;;;;;;;1.67;1.03;;;14.40;99.90;;;;;;5026443;28;20480;-85
2022/10/01 13:31:36;;;;;;;0.60;0.50;;;14.30;99.90;;;;;;5026045;28;20457;-86
2022/10/01 13:34:03;;;;;;;0.63;0.63;;;14.60;99.90;;;;;;5023205;28;20505;-85
2022/10/01 13:36:33;;;;;;;0.73;0.60;;;14.60;99.90;;;;;;5020230;28;20454;-86
2022/10/01 13:39:00;;;;;;;0.80;0.80;;;14.80;99.90;;;;;;5027817;28;20474;-86
2022/10/01 13:41:30;;;;;;;0.90;0.90;;;14.80;99.90;;;;;;5038010;28;20448;-84
2022/10/01 13:44:02;;;;;;;1.60;1.50;;;14.90;99.90;;;;;;5028388;28;20441;-84
2022/10/01 13:46:31;;;;;;;2.20;1.87;;;15.20;99.90;;;;;;5038279;28;20476;-84